Date,TemperatureHighF,TemperatureAvgF,TemperatureLowF,DewpointHighF,DewpointAvgF,DewpointLowF,HumidityHigh,HumidityAvg,HumidityLow,PressureMaxIn,PressureMinIn,WindSpeedMaxMPH,WindSpeedAvgMPH,GustSpeedMaxMPH,PrecipitationSumIn
2013-8-1,85.3,75.2,68.5,74.5,70.5,67.3,98,86,63,30.04,29.95,10,1,10,0.00
2013-8-2,86.7,74.7,62.5,73.9,68.2,61.6,98,82,51,30.04,29.95,0,0,0,0.00
2013-8-3,81.9,74.0,69.4,76.5,71.9,67.8,98,93,83,30.05,29.94,7,0,7,0.46
2013-8-4,82.8,75.0,66.7,72.0,68.3,63.4,98,81,58,30.11,30.03,8,2,8,0.00
2013-8-5,80.2,70.9,66.2,70.0,66.6,63.8,97,87,60,30.09,29.93,0,0,0,0.08
2013-8-6,83.2,75.4,69.0,78.1,73.2,67.8,98,93,77,29.96,29.89,7,0,7,0.16
2013-8-7,85.8,77.1,71.9,79.3,75.2,71.3,99,94,78,29.96,29.87,2,0,2,0.21
2013-8-8,84.2,76.6,72.5,79.4,74.7,70.2,98,94,84,29.96,29.88,18,0,18,0.39
2013-8-9,90.0,79.7,73.6,81.0,75.8,72.4,98,89,70,30.02,29.91,9,0,9,0.06
2013-8-10,83.6,76.2,71.3,77.3,73.8,70.2,99,93,75,30.12,30.01,18,0,18,0.96
2013-8-11,87.4,78.7,72.7,79.4,75.6,72.0,99,91,72,30.12,30.03,0,0,0,0.94
2013-8-12,86.4,76.8,72.3,78.1,74.4,71.0,99,93,72,30.06,29.91,12,0,11,1.07
2013-8-13,84.3,76.4,69.4,76.8,71.6,65.3,98,86,66,30.01,29.91,11,1,11,0.00
2013-8-14,76.2,67.4,59.3,65.2,58.9,55.6,93,76,51,30.11,30.01,10,0,10,0.00
2013-8-15,59.2,57.7,56.5,57.1,56.1,55.1,96,95,93,30.10,30.07,0,0,0,0.00
2013-8-17,79.5,73.1,69.6,70.5,68.6,67.7,94,86,68,30.08,30.03,0,0,0,0.28
2013-8-18,80.3,71.5,67.3,71.9,68.4,66.3,98,91,70,30.15,30.05,0,0,0,0.03
2013-8-19,85.5,73.3,64.0,74.1,69.0,63.4,99,88,62,30.12,30.02,0,0,0,0.01
2013-8-20,88.2,76.7,67.4,77.2,71.8,66.8,99,86,63,30.11,30.02,1,0,0,0.00
2013-8-21,90.5,78.5,67.5,78.2,72.5,66.5,98,84,55,30.14,30.05,0,0,0,0.00
2013-8-22,90.7,79.9,69.0,78.9,73.9,68.1,98,83,58,30.13,30.01,0,0,0,0.00
2013-8-23,91.8,77.9,70.1,79.2,73.1,69.2,98,86,59,30.07,29.98,17,0,17,0.01
2013-8-24,89.6,77.7,67.7,75.5,71.4,66.8,98,83,56,30.18,30.06,8,0,8,0.01
2013-8-25,88.3,77.2,68.5,76.5,71.6,67.0,97,84,62,30.28,30.18,8,0,8,0.00
2013-8-26,88.3,76.4,66.4,77.0,71.0,65.5,98,85,62,30.27,30.11,1,0,0,0.00
2013-8-27,87.4,76.6,66.1,78.4,71.7,65.2,98,86,65,30.14,30.02,1,0,1,0.01
2013-8-28,91.5,78.5,67.5,77.7,72.6,66.6,98,84,56,30.07,29.98,0,0,0,0.01
2013-8-29,94.2,80.8,69.3,80.5,74.7,68.5,98,83,56,30.03,29.93,1,0,1,0.00
2013-8-30,94.5,81.9,72.6,79.8,75.2,71.7,98,82,55,29.98,29.87,1,0,1,0.00
2013-8-31,93.8,81.9,72.0,79.0,75.4,71.0,97,82,58,29.91,29.78,1,0,1,0.00